Terminal Aerodrome Forecast
Issued by NWS St Louis, MO

Home | Current Version | Previous Version | Text Only | Print | Product List | Glossary On
Versions: 1 2 3 4 5 6 7 8 9 10 11 12 13 14 15 16 17 18 19 20 21 22 23 24 25 26 27 28 29 30 31 32
000
FTUS43 KLSX 250500
TAFSTL
TAF
KSTL 250530Z 2506/2612 22007KT P6SM BKN120
     FM251000 22009KT P6SM -RA OVC040
     FM251400 25011KT 4SM -RA BR OVC012
     FM251700 29013KT P6SM VCSH OVC012
     FM252100 35015G25KT 3SM -RASN BR SCT006 OVC012
     FM260300 35013KT P6SM VCSH OVC012=

USA.gov is the U.S. government's official web portal to all federal, state and local government web resources and services.